createdAt,value
2023-04-03T00:00:11.995Z,1.17
2023-04-03T00:02:39.114Z,0.57
2023-04-03T00:05:06.599Z,1.15
2023-04-03T00:07:33.699Z,0.80
2023-04-03T00:10:00.753Z,0.60
2023-04-03T00:12:27.840Z,0.63
2023-04-03T00:14:57.921Z,0.70
2023-04-03T00:17:25.006Z,0.70
2023-04-03T00:19:52.146Z,0.50
2023-04-03T00:22:19.135Z,0.70
2023-04-03T00:24:46.231Z,0.82
2023-04-03T00:27:13.346Z,0.65
2023-04-03T00:29:40.383Z,0.80
2023-04-03T00:32:07.415Z,0.70
2023-04-03T00:34:34.432Z,0.60
2023-04-03T00:37:01.599Z,0.60
2023-04-03T00:39:28.771Z,0.60
2023-04-03T00:41:56.073Z,0.70
2023-04-03T00:44:44.995Z,0.90
2023-04-03T00:47:14.403Z,0.60
2023-04-03T00:49:42.388Z,0.85
2023-04-03T00:52:17.693Z,0.80
2023-04-03T00:54:46.793Z,0.63
2023-04-03T00:57:14.888Z,0.60
2023-04-03T00:59:46.390Z,0.82
2023-04-03T01:02:13.603Z,0.82
2023-04-03T01:04:43.642Z,0.63
2023-04-03T01:07:22.554Z,0.85
2023-04-03T01:09:54.846Z,0.80
2023-04-03T01:12:25.587Z,1.00
2023-04-03T01:14:55.836Z,1.30
2023-04-03T01:17:33.606Z,0.77
2023-04-03T01:20:40.757Z,0.50
2023-04-03T01:23:25.076Z,0.68
2023-04-03T01:25:58.428Z,0.73
2023-04-03T01:28:29.121Z,0.77
2023-04-03T01:31:32.548Z,0.65
2023-04-03T01:34:00.443Z,0.75
2023-04-03T01:36:31.588Z,0.82
2023-04-03T01:39:00.891Z,0.60
2023-04-03T01:41:28.940Z,0.60
2023-04-03T01:43:56.028Z,0.60
2023-04-03T01:46:23.520Z,0.73
2023-04-03T01:48:50.934Z,0.98
2023-04-03T01:51:18.593Z,0.60
2023-04-03T01:53:45.718Z,0.70
2023-04-03T01:56:12.759Z,0.63
2023-04-03T01:58:39.838Z,0.70
2023-04-03T02:01:07.774Z,0.45
2023-04-03T02:03:35.273Z,0.52
2023-04-03T02:06:02.548Z,0.30
2023-04-03T02:08:29.623Z,0.70
2023-04-03T02:10:56.707Z,0.65
2023-04-03T02:13:23.882Z,0.60
2023-04-03T02:15:50.964Z,0.47
2023-04-03T02:18:18.365Z,0.50
2023-04-03T02:20:45.676Z,0.77
2023-04-03T02:23:12.744Z,0.55
2023-04-03T02:25:39.809Z,0.60
2023-04-03T02:28:07.429Z,0.50
2023-04-03T02:30:34.969Z,0.60
2023-04-03T02:33:02.356Z,0.65
2023-04-03T02:35:29.505Z,0.60
2023-04-03T02:37:56.853Z,0.75
2023-04-03T02:40:23.929Z,0.75
2023-04-03T02:42:51.013Z,0.50
2023-04-03T02:45:18.074Z,0.60
2023-04-03T02:47:45.193Z,0.45
2023-04-03T02:50:12.309Z,0.45
2023-04-03T02:52:39.399Z,0.73
2023-04-03T02:55:07.036Z,0.60
2023-04-03T02:57:34.255Z,0.50
2023-04-03T03:00:01.285Z,0.90
2023-04-03T03:02:28.407Z,0.52
2023-04-03T03:04:55.678Z,0.90
2023-04-03T03:07:22.831Z,0.50
2023-04-03T03:09:51.266Z,0.50
2023-04-03T03:12:22.716Z,1.40
2023-04-03T03:14:50.079Z,0.68
2023-04-03T03:17:17.740Z,1.23
2023-04-03T03:19:44.995Z,0.65
2023-04-03T03:22:12.022Z,0.50
2023-04-03T03:24:39.057Z,0.50
2023-04-03T03:27:06.709Z,0.50
2023-04-03T03:29:33.718Z,0.32
2023-04-03T03:32:01.005Z,0.63
2023-04-03T03:34:28.085Z,0.50
2023-04-03T03:36:55.121Z,0.45
2023-04-03T03:39:22.533Z,0.40
2023-04-03T03:41:50.830Z,0.52
2023-04-03T03:44:17.874Z,0.52
2023-04-03T03:46:44.991Z,0.55
2023-04-03T03:49:12.578Z,0.40
2023-04-03T03:51:40.364Z,0.50
2023-04-03T03:54:07.742Z,0.60
2023-04-03T03:56:35.452Z,0.43
2023-04-03T03:59:02.509Z,0.73
2023-04-03T04:01:29.944Z,0.50
2023-04-03T04:03:57.206Z,1.58
2023-04-03T04:06:24.671Z,0.40
2023-04-03T04:08:51.714Z,0.40
2023-04-03T04:11:18.753Z,0.40
2023-04-03T04:13:45.851Z,1.20
2023-04-03T04:16:12.922Z,0.68
2023-04-03T04:18:40.008Z,0.47
2023-04-03T04:21:07.146Z,0.63
2023-04-03T04:23:34.156Z,0.82
2023-04-03T04:26:01.274Z,0.30
2023-04-03T04:28:28.275Z,0.32
2023-04-03T04:30:55.411Z,0.40
2023-04-03T04:33:22.522Z,0.90
2023-04-03T04:35:50.021Z,0.47
2023-04-03T04:38:17.404Z,0.55
2023-04-03T04:40:44.446Z,0.50
2023-04-03T04:43:15.417Z,0.50
2023-04-03T04:45:43.058Z,0.75
2023-04-03T04:48:10.584Z,0.68
2023-04-03T04:50:37.657Z,0.73
2023-04-03T04:53:05.424Z,0.70
2023-04-03T04:55:32.476Z,0.52
2023-04-03T04:57:59.551Z,0.70
2023-04-03T05:00:26.866Z,0.73
2023-04-03T05:02:53.945Z,0.50
2023-04-03T05:05:21.097Z,0.50
2023-04-03T05:07:48.156Z,0.60
2023-04-03T05:10:15.214Z,0.60
2023-04-03T05:12:42.261Z,0.75
2023-04-03T05:15:09.912Z,0.73
2023-04-03T05:17:37.133Z,0.57
2023-04-03T05:20:08.674Z,2.53
2023-04-03T05:22:35.681Z,2.40
2023-04-03T05:25:02.736Z,1.00
2023-04-03T05:27:29.876Z,4.30
2023-04-03T05:29:58.002Z,0.60
2023-04-03T05:32:26.828Z,0.88
2023-04-03T05:34:54.468Z,1.08
2023-04-03T05:37:22.151Z,0.80
2023-04-03T05:39:49.425Z,1.63
2023-04-03T05:42:18.000Z,1.17
2023-04-03T05:44:47.371Z,3.55
2023-04-03T05:47:14.682Z,2.53
2023-04-03T05:49:42.105Z,1.42
2023-04-03T05:52:34.323Z,2.05
2023-04-03T05:55:01.699Z,0.80
2023-04-03T05:57:29.224Z,0.88
2023-04-03T05:59:56.694Z,2.67
2023-04-03T06:02:25.260Z,0.80
2023-04-03T06:04:53.285Z,0.65
2023-04-03T06:07:23.912Z,1.95
2023-04-03T06:09:52.578Z,2.80
2023-04-03T06:12:20.359Z,1.95
2023-04-03T06:14:47.724Z,0.85
2023-04-03T06:17:16.394Z,1.77
2023-04-03T06:19:43.685Z,2.38
2023-04-03T06:22:10.866Z,0.95
2023-04-03T06:24:39.098Z,1.08
2023-04-03T06:27:06.439Z,1.30
2023-04-03T06:29:33.636Z,0.80
2023-04-03T06:32:00.768Z,1.75
2023-04-03T06:34:27.811Z,1.17
2023-04-03T06:36:55.100Z,2.50
2023-04-03T06:39:23.894Z,0.73
2023-04-03T06:41:52.065Z,1.02
2023-04-03T06:44:19.172Z,1.98
2023-04-03T06:46:47.657Z,3.30
2023-04-03T06:49:16.201Z,1.40
2023-04-03T06:51:43.337Z,1.75
2023-04-03T06:54:10.922Z,0.88
2023-04-03T06:56:38.291Z,1.30
2023-04-03T06:59:05.642Z,1.60
2023-04-03T07:01:33.471Z,1.55
2023-04-03T07:04:01.094Z,4.35
2023-04-03T07:06:28.489Z,1.80
2023-04-03T07:08:56.749Z,16.75
2023-04-03T07:11:23.991Z,61.28
2023-04-03T07:13:52.043Z,36.30
2023-04-03T07:16:19.730Z,23.63
2023-04-03T07:18:47.672Z,36.00
2023-04-03T07:21:14.981Z,33.13
2023-04-03T07:23:42.137Z,23.05
2023-04-03T07:26:10.323Z,15.98
2023-04-03T07:28:37.943Z,18.27
2023-04-03T07:31:09.694Z,7.20
2023-04-03T07:33:38.382Z,15.60
2023-04-03T07:36:08.043Z,9.35
2023-04-03T07:38:37.259Z,10.23
2023-04-03T07:41:05.261Z,3.25
2023-04-03T07:43:32.341Z,3.38
2023-04-03T07:45:59.456Z,3.22
2023-04-03T07:48:27.365Z,2.92
2023-04-03T07:50:54.447Z,1.20
2023-04-03T07:53:21.816Z,3.92
2023-04-03T07:55:50.230Z,2.50
2023-04-03T07:58:19.590Z,2.53
2023-04-03T08:00:47.747Z,2.77
2023-04-03T08:03:15.351Z,2.33
2023-04-03T08:05:44.513Z,3.75
2023-04-03T08:08:14.056Z,1.65
2023-04-03T08:10:41.364Z,5.78
2023-04-03T08:13:09.781Z,1.95
2023-04-03T08:15:37.860Z,3.10
2023-04-03T08:18:05.470Z,2.53
2023-04-03T08:20:33.155Z,4.32
2023-04-03T08:23:00.464Z,1.98
2023-04-03T08:25:27.711Z,1.40
2023-04-03T08:27:54.802Z,1.75
2023-04-03T08:30:21.900Z,1.20
2023-04-03T08:32:49.575Z,3.88
2023-04-03T08:35:16.819Z,1.30
2023-04-03T08:37:43.978Z,3.72
2023-04-03T08:40:17.314Z,1.02
2023-04-03T08:43:13.456Z,3.63
2023-04-03T08:45:59.032Z,3.55
2023-04-03T08:48:36.670Z,2.72
2023-04-03T08:51:16.980Z,1.63
2023-04-03T08:56:20.233Z,1.40
2023-04-03T08:58:53.943Z,1.70
2023-04-03T09:01:41.069Z,2.33
2023-04-03T09:04:15.391Z,2.03
2023-04-03T09:06:47.492Z,1.77
2023-04-03T09:09:39.758Z,3.00
2023-04-03T09:12:28.680Z,1.50
2023-04-03T09:15:16.418Z,1.48
2023-04-03T09:18:00.559Z,2.40
2023-04-03T09:20:54.995Z,3.15
2023-04-03T09:23:43.486Z,4.82
2023-04-03T09:26:19.044Z,2.45
2023-04-03T09:28:50.342Z,3.08
2023-04-03T09:31:27.257Z,1.90
2023-04-03T09:33:59.773Z,2.60
2023-04-03T09:36:42.217Z,2.95
2023-04-03T09:39:15.800Z,1.98
2023-04-03T09:41:55.905Z,2.55
2023-04-03T09:44:29.009Z,1.65
2023-04-03T09:46:56.894Z,3.00
2023-04-03T09:49:24.118Z,2.33
2023-04-03T09:51:51.133Z,4.05
2023-04-03T09:54:37.291Z,3.38
2023-04-03T09:57:14.461Z,3.47
2023-04-03T09:59:59.888Z,3.60
2023-04-03T10:02:37.977Z,3.67
2023-04-03T10:05:26.516Z,2.80
2023-04-03T10:08:22.946Z,3.78
2023-04-03T10:11:09.372Z,2.00
2023-04-03T10:13:48.690Z,3.80
2023-04-03T10:16:23.506Z,2.75
2023-04-03T10:19:27.258Z,2.25
2023-04-03T10:22:01.777Z,6.22
2023-04-03T10:24:57.719Z,1.90
2023-04-03T10:27:43.031Z,2.42
2023-04-03T10:30:33.614Z,2.35
2023-04-03T10:33:24.135Z,1.55
2023-04-03T10:36:21.192Z,3.90
2023-04-03T10:39:17.122Z,1.30
2023-04-03T10:42:15.974Z,2.42
2023-04-03T10:45:16.386Z,4.45
2023-04-03T10:48:04.087Z,3.90
2023-04-03T10:50:53.526Z,1.88
2023-04-03T10:53:40.304Z,4.22
2023-04-03T10:56:38.390Z,2.40
2023-04-03T10:59:22.295Z,4.72
2023-04-03T11:01:59.390Z,1.70
2023-04-03T11:04:31.420Z,5.03
2023-04-03T11:07:04.647Z,4.32
2023-04-03T11:09:38.893Z,2.30
2023-04-03T11:12:14.847Z,1.55
2023-04-03T11:14:43.490Z,2.03
2023-04-03T11:17:29.227Z,1.73
2023-04-03T11:20:19.034Z,2.83
2023-04-03T11:22:54.398Z,1.20
2023-04-03T11:25:25.794Z,6.47
2023-04-03T11:28:02.780Z,2.30
2023-04-03T11:30:44.004Z,2.38
2023-04-03T11:33:39.413Z,2.08
2023-04-03T11:36:35.815Z,1.85
2023-04-03T11:39:40.094Z,1.92
2023-04-03T11:42:37.063Z,1.88
2023-04-03T11:45:38.430Z,2.10
2023-04-03T11:48:46.050Z,3.00
2023-04-03T11:51:40.203Z,3.28
2023-04-03T11:54:47.163Z,1.38
2023-04-03T11:57:46.290Z,2.67
2023-04-03T12:00:47.997Z,3.30
2023-04-03T12:03:55.433Z,1.48
2023-04-03T12:06:50.231Z,2.60
2023-04-03T12:09:32.716Z,1.80
2023-04-03T12:12:03.040Z,1.52
2023-04-03T12:14:30.908Z,1.75
2023-04-03T12:17:00.940Z,2.58
2023-04-03T12:22:21.821Z,2.47
2023-04-03T12:24:51.825Z,3.13
2023-04-03T12:27:42.092Z,1.48
2023-04-03T12:30:31.559Z,4.15
2023-04-03T12:33:20.324Z,1.95
2023-04-03T12:36:09.580Z,1.30
2023-04-03T12:38:57.418Z,5.22
2023-04-03T12:41:46.393Z,1.33
2023-04-03T12:44:48.636Z,4.32
2023-04-03T12:47:34.080Z,2.10
2023-04-03T12:50:03.935Z,1.92
2023-04-03T12:52:42.467Z,5.78
2023-04-03T12:55:17.367Z,3.95
2023-04-03T12:57:44.848Z,3.45
2023-04-03T13:00:35.374Z,3.53
2023-04-03T13:03:06.148Z,1.65
2023-04-03T13:05:36.695Z,2.20
2023-04-03T13:08:13.777Z,2.40
2023-04-03T13:11:05.216Z,5.70
2023-04-03T13:13:33.312Z,3.00
2023-04-03T13:16:00.966Z,2.50
2023-04-03T13:18:36.466Z,1.60
2023-04-03T13:21:07.844Z,2.17
2023-04-03T13:23:39.709Z,7.72
2023-04-03T13:26:07.987Z,8.93
2023-04-03T13:28:36.536Z,1.95
2023-04-03T13:31:22.453Z,2.65
2023-04-03T13:34:04.374Z,3.13
2023-04-03T13:36:35.503Z,3.85
2023-04-03T13:39:22.383Z,2.38
2023-04-03T13:41:53.542Z,2.17
2023-04-03T13:44:36.832Z,2.70
2023-04-03T13:47:21.546Z,2.10
2023-04-03T13:50:18.595Z,2.10
2023-04-03T13:52:56.335Z,2.42
2023-04-03T13:55:31.193Z,2.85
2023-04-03T13:58:04.619Z,1.77
2023-04-03T14:00:40.867Z,2.40
2023-04-03T14:03:21.675Z,3.88
2023-04-03T14:05:49.985Z,3.45
2023-04-03T14:08:17.492Z,1.73
2023-04-03T14:10:45.120Z,3.50
2023-04-03T14:13:15.816Z,2.85
2023-04-03T14:15:43.607Z,2.80
2023-04-03T14:18:13.593Z,3.60
2023-04-03T14:20:41.067Z,6.38
2023-04-03T14:23:08.500Z,2.85
2023-04-03T14:25:36.145Z,4.28
2023-04-03T14:28:18.872Z,2.95
2023-04-03T14:30:47.821Z,4.45
2023-04-03T14:33:17.870Z,3.63
2023-04-03T14:38:24.219Z,6.15
2023-04-03T14:40:52.092Z,7.15
2023-04-03T14:43:21.228Z,3.78
2023-04-03T14:45:49.377Z,3.70
2023-04-03T14:48:23.965Z,5.43
2023-04-03T14:51:04.548Z,9.05
2023-04-03T14:53:39.120Z,8.18
2023-04-03T14:56:15.348Z,5.13
2023-04-03T14:58:42.555Z,5.43
2023-04-03T15:01:12.027Z,2.53
2023-04-03T15:03:39.510Z,3.55
2023-04-03T15:06:07.001Z,5.70
2023-04-03T15:08:34.064Z,7.53
2023-04-03T15:11:02.134Z,6.25
2023-04-03T15:13:29.244Z,6.00
2023-04-03T15:15:56.354Z,7.78
2023-04-03T15:18:30.874Z,8.23
2023-04-03T15:20:58.216Z,6.50
2023-04-03T15:23:27.063Z,9.15
2023-04-03T15:25:55.240Z,5.32
2023-04-03T15:28:38.864Z,7.28
2023-04-03T15:31:06.878Z,6.13
2023-04-03T15:33:35.304Z,18.63
2023-04-03T15:36:07.059Z,7.65
2023-04-03T15:38:35.251Z,5.53
2023-04-03T15:41:02.445Z,7.65
2023-04-03T15:43:29.558Z,8.57
2023-04-03T15:46:00.797Z,4.50
2023-04-03T15:48:31.659Z,3.80
2023-04-03T15:50:59.325Z,2.72
2023-04-03T15:53:26.600Z,3.60
2023-04-03T15:55:53.688Z,7.72
2023-04-03T15:58:21.068Z,2.40
2023-04-03T16:00:48.371Z,4.10
2023-04-03T16:03:21.213Z,5.47
2023-04-03T16:05:49.114Z,3.80
2023-04-03T16:08:17.226Z,5.28
2023-04-03T16:10:46.661Z,6.80
2023-04-03T16:13:14.056Z,2.10
2023-04-03T16:15:41.806Z,2.97
2023-04-03T16:18:11.221Z,5.40
2023-04-03T16:20:38.764Z,6.45
2023-04-03T16:23:06.024Z,7.38
2023-04-03T16:25:33.121Z,3.95
2023-04-03T16:28:00.410Z,5.20
2023-04-03T16:30:27.685Z,5.50
2023-04-03T16:32:56.599Z,5.18
2023-04-03T16:35:23.990Z,2.83
2023-04-03T16:37:51.107Z,4.80
2023-04-03T16:40:18.236Z,6.55
2023-04-03T16:42:45.363Z,3.65
2023-04-03T16:45:12.537Z,5.60
2023-04-03T16:47:39.733Z,6.30
2023-04-03T16:50:07.454Z,4.25
2023-04-03T16:52:34.735Z,3.45
2023-04-03T16:55:01.891Z,4.57
2023-04-03T16:57:29.051Z,5.60
2023-04-03T16:59:56.520Z,3.13
2023-04-03T17:02:28.678Z,1.67
2023-04-03T17:04:55.805Z,2.05
2023-04-03T17:07:24.715Z,2.72
2023-04-03T17:09:52.715Z,2.38
2023-04-03T17:12:20.001Z,2.10
2023-04-03T17:14:47.989Z,3.20
2023-04-03T17:17:16.025Z,1.70
2023-04-03T17:19:44.140Z,1.52
2023-04-03T17:22:11.675Z,2.40
2023-04-03T17:24:38.771Z,2.65
2023-04-03T17:27:06.244Z,3.78
2023-04-03T17:29:33.375Z,1.52
2023-04-03T17:32:00.565Z,2.50
2023-04-03T17:34:27.789Z,2.08
2023-04-03T17:36:55.105Z,3.78
2023-04-03T17:39:22.255Z,2.22
2023-04-03T17:41:49.793Z,1.30
2023-04-03T17:44:17.005Z,2.63
2023-04-03T17:46:44.241Z,1.92
2023-04-03T17:49:15.069Z,1.65
2023-04-03T17:51:42.829Z,2.08
2023-04-03T17:54:10.338Z,0.98
2023-04-03T17:56:37.462Z,2.08
2023-04-03T17:59:05.032Z,2.25
2023-04-03T18:01:34.825Z,1.58
2023-04-03T18:04:04.824Z,4.85
2023-04-03T18:06:41.592Z,1.23
2023-04-03T18:09:12.848Z,1.50
2023-04-03T18:11:40.262Z,1.27
2023-04-03T18:14:08.770Z,1.17
2023-04-03T18:16:36.048Z,1.40
2023-04-03T18:19:17.568Z,2.45
2023-04-03T18:21:49.184Z,1.70
2023-04-03T18:24:18.486Z,1.63
2023-04-03T18:26:48.519Z,1.77
2023-04-03T18:29:16.433Z,1.05
2023-04-03T18:31:48.080Z,1.40
2023-04-03T18:34:15.211Z,1.83
2023-04-03T18:36:42.295Z,2.45
2023-04-03T18:39:09.716Z,2.35
2023-04-03T18:41:37.753Z,1.40
2023-04-03T18:44:08.453Z,1.15
2023-04-03T18:49:09.794Z,1.45
2023-04-03T18:51:39.372Z,0.80
2023-04-03T18:54:09.749Z,1.00
2023-04-03T18:56:37.722Z,0.90
2023-04-03T18:59:05.717Z,1.20
2023-04-03T19:01:34.529Z,2.10
2023-04-03T19:04:01.836Z,1.02
2023-04-03T19:06:28.920Z,1.67
2023-04-03T19:08:56.360Z,1.67
2023-04-03T19:11:23.708Z,0.75
2023-04-03T19:14:10.734Z,1.55
2023-04-03T19:16:38.151Z,1.17
2023-04-03T19:19:05.262Z,1.73
2023-04-03T19:21:33.050Z,2.17
2023-04-03T19:24:00.218Z,1.35
2023-04-03T19:26:27.703Z,2.17
2023-04-03T19:28:54.813Z,1.25
2023-04-03T19:31:22.478Z,1.02
2023-04-03T19:33:50.160Z,1.35
2023-04-03T19:36:18.041Z,1.38
2023-04-03T19:38:45.274Z,2.28
2023-04-03T19:41:19.971Z,0.88
2023-04-03T19:43:48.807Z,1.58
2023-04-03T19:46:18.719Z,1.55
2023-04-03T19:48:47.444Z,1.17
2023-04-03T19:51:14.637Z,2.35
2023-04-03T19:53:41.714Z,2.00
2023-04-03T19:56:08.856Z,1.70
2023-04-03T19:58:36.464Z,2.17
2023-04-03T20:01:03.606Z,1.00
2023-04-03T20:03:30.727Z,0.50
2023-04-03T20:05:57.960Z,1.05
2023-04-03T20:08:26.424Z,1.60
2023-04-03T20:10:53.509Z,0.70
2023-04-03T20:13:20.676Z,2.55
2023-04-03T20:15:48.049Z,2.25
2023-04-03T20:18:19.012Z,1.70
2023-04-03T20:20:57.182Z,1.08
2023-04-03T20:23:24.683Z,0.90
2023-04-03T20:26:01.951Z,0.88
2023-04-03T20:28:36.707Z,0.95
2023-04-03T20:31:04.900Z,0.40
2023-04-03T20:33:32.133Z,0.70
2023-04-03T20:35:59.297Z,1.05
2023-04-03T20:38:26.420Z,1.25
2023-04-03T20:40:53.482Z,0.60
2023-04-03T20:43:21.919Z,0.75
2023-04-03T20:45:49.439Z,1.05
2023-04-03T20:48:18.540Z,0.77
2023-04-03T20:50:46.599Z,1.15
2023-04-03T20:53:15.163Z,0.75
2023-04-03T20:55:42.564Z,1.25
2023-04-03T20:58:09.896Z,0.80
2023-04-03T21:00:38.292Z,1.30
2023-04-03T21:03:06.291Z,0.50
2023-04-03T21:05:37.553Z,0.73
2023-04-03T21:08:44.297Z,1.42
2023-04-03T21:11:51.065Z,0.90
2023-04-03T21:14:58.220Z,1.13
2023-04-03T21:17:25.146Z,0.85
2023-04-03T21:19:53.361Z,0.60
2023-04-03T21:22:21.475Z,0.47
2023-04-03T21:24:48.809Z,0.60
2023-04-03T21:27:16.025Z,2.25
2023-04-03T21:29:43.885Z,0.57
2023-04-03T21:32:11.270Z,1.15
2023-04-03T21:34:39.227Z,0.60
2023-04-03T21:37:08.853Z,0.70
2023-04-03T21:39:36.325Z,0.80
2023-04-03T21:42:03.421Z,0.52
2023-04-03T21:44:30.516Z,0.70
2023-04-03T21:46:58.097Z,1.55
2023-04-03T21:49:25.940Z,0.75
2023-04-03T21:51:53.050Z,0.80
2023-04-03T21:54:20.572Z,0.98
2023-04-03T21:56:52.514Z,1.88
2023-04-03T21:59:19.701Z,0.95
2023-04-03T22:01:46.997Z,0.77
2023-04-03T22:04:14.198Z,0.47
2023-04-03T22:06:41.797Z,0.90
2023-04-03T22:09:08.856Z,0.55
2023-04-03T22:11:38.637Z,0.63
2023-04-03T22:14:05.665Z,0.57
2023-04-03T22:16:32.774Z,0.95
2023-04-03T22:18:59.803Z,1.55
2023-04-03T22:21:27.296Z,0.57
2023-04-03T22:23:54.828Z,0.47
2023-04-03T22:26:22.239Z,0.50
2023-04-03T22:28:49.268Z,0.55
2023-04-03T22:31:16.963Z,1.38
2023-04-03T22:33:45.690Z,0.57
2023-04-03T22:36:14.144Z,1.05
2023-04-03T22:38:45.030Z,1.10
2023-04-03T22:41:12.123Z,1.85
2023-04-03T22:43:40.048Z,0.40
2023-04-03T22:46:09.730Z,0.65
2023-04-03T22:48:38.702Z,0.77
2023-04-03T22:51:07.712Z,0.50
2023-04-03T22:53:35.762Z,0.90
2023-04-03T22:56:05.022Z,0.70
2023-04-03T22:58:32.378Z,0.80
2023-04-03T23:01:11.342Z,0.85
2023-04-03T23:03:39.728Z,1.38
2023-04-03T23:06:07.943Z,0.50
2023-04-03T23:08:38.035Z,1.70
2023-04-03T23:11:07.363Z,0.98
2023-04-03T23:13:34.719Z,0.75
2023-04-03T23:16:02.747Z,0.52
2023-04-03T23:18:31.689Z,0.65
2023-04-03T23:21:04.152Z,0.75
2023-04-03T23:23:32.112Z,2.15
2023-04-03T23:26:00.921Z,0.50
2023-04-03T23:28:29.238Z,0.90
2023-04-03T23:30:59.577Z,0.73
2023-04-03T23:35:53.534Z,0.50
2023-04-03T23:38:20.555Z,0.50
2023-04-03T23:40:48.396Z,0.40
2023-04-03T23:43:15.733Z,1.00
2023-04-03T23:45:44.899Z,0.55
2023-04-03T23:48:12.049Z,0.35
2023-04-03T23:50:39.218Z,1.10
2023-04-03T23:53:06.604Z,0.45
2023-04-03T23:55:33.678Z,1.10
2023-04-03T23:58:00.727Z,0.35
